SPECI KEQY 200001Z AUTO 05003KT 2SM BR OVC001 01/00 A3013 RMK AO2 TSNO 
METAR KEQY 192353Z AUTO 00000KT 3SM BR OVC001 01/00 A3013 RMK AO2 SLP224 60013 T00060000 10006 20000 50004 TSNO 
SPECI KEQY 192342Z AUTO 04003KT 3SM BR OVC003 01/00 A3012 RMK AO2 TSNO 
SPECI KEQY 192335Z AUTO 00000KT 2 1/2SM BR OVC003 01/00 A3012 RMK AO2 TSNO 
METAR KEQY 192253Z AUTO 36003KT 4SM BR OVC003 01/00 A3013 RMK AO2 RAB08E12FZRAB12E40SNE08 PRESRR SLP225 P0002 T00060000 TSNO 
SPECI KEQY 192246Z AUTO 01003KT 4SM BR OVC003 01/00 A3013 RMK AO2 RAB08E12FZRAB12E40SNE08 PRESRR P0002 TSNO 
SPECI KEQY 192238Z AUTO 02004KT 3SM -FZRA BR OVC003 01/00 A3012 RMK AO2 RAB08E12FZRAB12SNE08 PRESRR P0002 TSNO 
SPECI KEQY 192216Z AUTO 06004KT 2SM -FZRA BR OVC003 00/00 A3009 RMK AO2 RAB08E12FZRAB12SNE08 P0001 TSNO 
SPECI KEQY 192208Z AUTO VRB03KT 1 1/2SM -RA BR OVC003 00/00 A3010 RMK AO2 RAB08SNE08 P0001 TSNO 
METAR KEQY 192153Z AUTO 07004KT 3/4SM -SN BR OVC003 00/00 A3011 RMK AO2 SLP218 P0004 T00000000 TSNO 
SPECI KEQY 192142Z AUTO 05003KT 1 1/4SM -SN BR OVC003 00/00 A3012 RMK AO2 P0003 TSNO 
SPECI KEQY 192135Z AUTO 01004KT 3/4SM -SN BR OVC003 01/00 A3013 RMK AO2 P0003 TSNO 
METAR KEQY 192053Z AUTO 03007KT 1 1/2SM -SN BR OVC003 01/00 A3011 RMK AO2 PRESFR SLP217 P0001 60007 T00060000 58005 TSNO 
METAR KEQY 191953Z AUTO 00000KT 1SM -SN BR OVC003 01/00 A3015 RMK AO2 PRESRR SLP229 P0004 T00060000 TSNO 
SPECI KEQY 191937Z AUTO 05006KT 1SM -SN BR OVC003 00/00 A3012 RMK AO2 PRESFR P0003 TSNO 
SPECI KEQY 191923Z AUTO 04008KT 3/4SM -SN BR OVC003 00/00 A3011 RMK AO2 PRESFR P0002 TSNO 
METAR KEQY 191853Z AUTO 04004KT 1 3/4SM -SN BR OVC003 01/00 A3015 RMK AO2 RAB21E26FZRAE41SNB41 SLP229 P0002 T00060000 TSNO 
METAR KEQY 191753Z AUTO 05006KT 2SM -FZRA BR OVC003 01/00 A3014 RMK AO2 UPB36E53FZRAB53SNE36B40E49 PRESFR SLP225 P0005 60030 T00060000 10033 20000 58025 TSNO 
SPECI KEQY 191733Z AUTO 04007KT 1 1/4SM -SN BR OVC003 00/00 A3016 RMK AO2 PRESFR P0005 TSNO 
SPECI KEQY 191725Z AUTO 04006KT 3/4SM -SN BR OVC003 00/00 A3018 RMK AO2 PRESFR P0005 TSNO 
SPECI KEQY 191706Z AUTO 05005KT 1/2SM SN FG OVC003 00/00 A3020 RMK AO2 CIG 001V006 PRESFR P0002 TSNO 
METAR KEQY 191653Z AUTO 03007KT 3/4SM -SN BR OVC003 01/00 A3020 RMK AO2 RAE12UPB12E15SNB15 PRESRR SLP247 P0005 T00060000 TSNO 
SPECI KEQY 191642Z AUTO 05005KT 1 1/4SM -SN BR BKN005 OVC011 01/01 A3023 RMK AO2 RAE12UPB12E15SNB15 PRESRR P0003 TSNO 
SPECI KEQY 191625Z AUTO 03009KT 2SM -SN BR BKN005 BKN011 OVC028 01/01 A3022 RMK AO2 RAE12UPB12E15SNB15 PRESRR P0002 TSNO 
SPECI KEQY 191618Z AUTO 03008KT 2 1/2SM -SN BR SCT005 SCT011 OVC030 01/01 A3022 RMK AO2 RAE12UPB12E15SNB15 PRESRR P0001 TSNO 
SPECI KEQY 191609Z AUTO 02008KT 4SM -RA BR SCT005 BKN011 OVC028 01/01 A3022 RMK AO2 PRESRR P0001 TSNO 
METAR KEQY 191553Z AUTO 02009KT 3SM -RA BR SCT005 OVC030 01/01 A3020 RMK AO2 PRESFR SLP246 P0007 T00110006 TSNO 
SPECI KEQY 191528Z AUTO 03008KT 2 1/2SM RA BR BKN007 BKN024 OVC045 02/01 A3020 RMK AO2 PRESRR P0004 TSNO 
SPECI KEQY 191521Z AUTO 02008KT 2 1/2SM RA BR SCT007 BKN032 OVC045 02/01 A3022 RMK AO2 PRESRR P0002 TSNO 
SPECI KEQY 191507Z AUTO 02006KT 3SM -RA BR FEW007 OVC045 03/02 A3022 RMK AO2 PRESRR P0001 TSNO 
METAR KEQY 191453Z AUTO 01008KT 2 1/2SM RA BR OVC043 03/02 A3021 RMK AO2 PRESRR SLP249 P0006 60012 T00280017 53015 TSNO 
METAR KEQY 191353Z AUTO 02005KT 4SM -RA BR OVC043 03/02 A3018 RMK AO2 SLP239 P0004 T00330022 TSNO 
METAR KEQY 191253Z AUTO 04005KT 3SM -RA BR SCT050 OVC065 03/02 A3016 RMK AO2 SLP231 P0003 T00280022 TSNO 
METAR KEQY 191153Z AUTO 04004KT 5SM -RA BR OVC048 03/02 A3014 RMK AO2 PRESFR SLP226 P0003 60005 70008 T00280022 10033 20028 55005 TSNO 
METAR KEQY 191053Z AUTO 00000KT 5SM -RA BR OVC048 03/02 A3016 RMK AO2 SLP232 P0001 T00330022 TSNO 
METAR KEQY 190953Z AUTO 01003KT 7SM -RA SCT050 OVC065 03/02 A3013 RMK AO2 SLP222 P0000 T00280017 TSNO 
METAR KEQY 190853Z AUTO 00000KT 7SM -RA OVC050 03/02 A3017 RMK AO2 SLP234 P0000 60001 T00330022 56001 TSNO 
METAR KEQY 190753Z AUTO 24005KT 5SM -RA BR OVC065 03/02 A3018 RMK AO2 RAB48 SLP238 P0000 T00330022 TSNO 
METAR KEQY 190653Z AUTO 24003KT 7SM OVC065 03/02 A3016 RMK AO2 RAE36 SLP230 P0001 T00330022 TSNO 
METAR KEQY 190553Z AUTO 24004KT 7SM -RA OVC065 03/02 A3017 RMK AO2 SLP235 P0002 60003 T00330022 10050 20033 53000 TSNO 
METAR KEQY 190453Z AUTO 22006KT 9SM -RA OVC075 03/M01 A3017 RMK AO2 RAB42 SLP234 P0000 T00331011 400611011 TSNO 
METAR KEQY 190353Z AUTO 28003KT 10SM FEW080 04/M01 A3015 RMK AO2 RAE01 PRESFR SLP228 P0000 T00391006 TSNO 
METAR KEQY 190253Z AUTO 23004KT 10SM -RA BKN080 BKN095 04/M01 A3016 RMK AO2 RAE0156B50 SLP233 P0000 60001 T00391006 58007 TSNO 
METAR KEQY 190153Z AUTO 19004KT 10SM -RA BKN065 BKN080 04/M01 A3017 RMK AO2 RAB07 PRESFR SLP236 P0001 T00391006 TSNO 
METAR KEQY 190053Z AUTO 25004KT 10SM OVC080 04/M01 A3023 RMK AO2 SLP257 T00441011 TSNO 
METAR KEQY 182353Z AUTO 23003KT 10SM OVC090 05/M02 A3020 RMK AO2 SLP247 T00501017 10061 20044 53005 TSNO 
METAR KEQY 182253Z AUTO 00000KT 10SM BKN100 04/M03 A3018 RMK AO2 SLP239 T00441028 TSNO 
METAR KEQY 182153Z AUTO 00000KT 10SM FEW110 06/M03 A3018 RMK AO2 SLP239 T00561028 TSNO 
METAR KEQY 182053Z AUTO 00000KT 10SM CLR 06/M04 A3019 RMK AO2 SLP242 T00561044 58016 TSNO 
METAR KEQY 181953Z AUTO VRB03KT 10SM CLR 06/M04 A3019 RMK AO2 SLP242 T00611044 TSNO 
METAR KEQY 181853Z AUTO 21003KT 10SM CLR 06/M04 A3021 RMK AO2 SLP249 T00611044 TSNO 
METAR KEQY 181753Z AUTO 00000KT 10SM CLR 06/M05 A3022 RMK AO2 SLP251 T00611050 10061 21011 58015 TSNO 
METAR KEQY 181653Z AUTO 00000KT 10SM CLR 06/M05 A3024 RMK AO2 PRESFR SLP257 T00561050 TSNO 
METAR KEQY 181553Z AUTO VRB04KT 10SM CLR 06/M06 A3028 RMK AO2 SLP271 T00561056 TSNO 
METAR KEQY 181453Z AUTO 04008KT 10SM CLR 04/M04 A3027 RMK AO2 SLP270 T00391044 50014 TSNO 
METAR KEQY 181353Z AUTO 04007KT 10SM CLR 02/M04 A3029 RMK AO2 SLP276 T00221044 TSNO 
METAR KEQY 181253Z AUTO 05006KT 10SM CLR 00/M04 A3026 RMK AO2 PRESRR SLP265 T00001044 TSNO 
METAR KEQY 181153Z AUTO 04005KT 10SM CLR M01/M04 A3025 RMK AO2 SLP261 T10061044 10033 21006 53015 TSNO 
METAR KEQY 181053Z AUTO 04007KT 10SM CLR 01/M05 A3022 RMK AO2 SLP253 T00061050 TSNO 
METAR KEQY 180953Z AUTO 02005KT 10SM CLR 00/M04 A3020 RMK AO2 SLP244 T00001044 TSNO 
METAR KEQY 180853Z AUTO 02006KT 10SM CLR 01/M04 A3019 RMK AO2 SLP241 T00111044 51015 TSNO 
METAR KEQY 180753Z AUTO 03007KT 10SM CLR 02/M04 A3018 RMK AO2 SLP237 T00221044 TSNO 
METAR KEQY 180653Z AUTO 03005KT 10SM CLR 03/M04 A3017 RMK AO2 SLP234 T00281044 TSNO 
METAR KEQY 180553Z AUTO 01009KT 10SM CLR 03/M04 A3015 RMK AO2 SLP224 T00331044 10089 20011 51018 TSNO 
METAR KEQY 180553Z AUTO 01009KT 10SM CLR 03/M04 A3015 RMK AO2 SLP224 T00331044 10089 20011 51018 TSNO 
METAR KEQY 180453Z AUTO 36007KT 10SM CLR 04/M03 A3013 RMK AO2 SLP220 T00391033 401110011 TSNO 
METAR KEQY 180353Z AUTO 00000KT 10SM CLR 02/M03 A3012 RMK AO2 SLP216 T00171028 TSNO 
METAR KEQY 180253Z AUTO 34004KT 10SM CLR 04/M02 A3009 RMK AO2 SLP207 T00391022 51025 TSNO 
METAR KEQY 180153Z AUTO 30003KT 10SM CLR 06/M02 A3008 RMK AO2 SLP200 T00611022 TSNO 
METAR KEQY 180053Z AUTO 32004KT 10SM FEW026 07/05 A3004 RMK AO2 SLP189 T00720050 TSNO 
METAR KEQY 172353Z AUTO 27004KT 8SM CLR 08/07 A3001 RMK AO2 SLP179 T00780072 10111 20067 53026 TSNO 
METAR KEQY 172253Z AUTO 24004KT 9SM CLR 08/07 A2999 RMK AO2 SLP169 T00830072 TSNO 
METAR KEQY 172153Z AUTO 24006KT 10SM CLR 10/08 A2996 RMK AO2 SLP158 T01000078 TSNO 
METAR KEQY 172053Z AUTO 25005KT 10SM CLR 11/08 A2994 RMK AO2 SLP150 T01110078 53008 TSNO 
METAR KEQY 171953Z AUTO 28006KT 10SM FEW015 11/08 A2993 RMK AO2 SLP146 T01110083 TSNO 
METAR KEQY 171853Z AUTO 28005KT 9SM CLR 11/08 A2992 RMK AO2 SLP145 T01060083 TSNO 
SPECI KEQY 171822Z AUTO 25006KT 8SM SCT011 11/08 A2992 RMK AO2 TSNO 
METAR KEQY 171753Z AUTO 29004KT 9SM BKN011 11/08 A2991 RMK AO2 SLP142 T01060083 10106 20078 50001 TSNO 
METAR KEQY 171653Z AUTO 30006KT 9SM OVC011 10/08 A2991 RMK AO2 SLP140 T01000083 TSNO 
METAR KEQY 171553Z AUTO 27004KT 5SM BR OVC006 09/09 A2992 RMK AO2 SLP144 T00940089 TSNO 
SPECI KEQY 171537Z AUTO 26005KT 5SM BR OVC006 09/09 A2993 RMK AO2 TSNO 
SPECI KEQY 171518Z AUTO VRB05KT 4SM BR OVC004 09/09 A2992 RMK AO2 CIG 003V007 TSNO 
METAR KEQY 171453Z AUTO 27006KT 3SM BR OVC002 09/09 A2992 RMK AO2 SLP145 T00940089 50008 TSNO 
SPECI KEQY 171440Z AUTO VRB04KT 3SM BR OVC002 09/09 A2991 RMK AO2 TSNO 
SPECI KEQY 171430Z AUTO 27007KT 2 1/2SM BR OVC002 09/09 A2992 RMK AO2 TSNO 
METAR KEQY 171353Z AUTO 26003KT 1 1/2SM BR OVC002 08/08 A2991 RMK AO2 SLP142 T00830083 TSNO 
SPECI KEQY 171339Z AUTO 27005KT 1 1/2SM BR OVC002 08/08 A2992 RMK AO2 TSNO 
SPECI KEQY 171318Z AUTO 27004KT 2SM BR OVC002 08/08 A2992 RMK AO2 TSNO 
METAR KEQY 171253Z AUTO 29003KT 1 1/4SM BR OVC002 08/08 A2990 RMK AO2 SLP139 T00830083 TSNO 
SPECI KEQY 171244Z AUTO 28003KT 1 1/2SM BR OVC002 08/08 A2990 RMK AO2 TSNO 
SPECI KEQY 171224Z AUTO 25005KT 2SM BR OVC002 08/08 A2989 RMK AO2 TSNO 
METAR KEQY 171153Z AUTO 25005KT 3SM BR OVC002 08/08 A2988 RMK AO2 SLP132 60012 70017 T00780078 10078 20067 56004 TSNO 
SPECI KEQY 171127Z AUTO 24006KT 3SM BR OVC002 08/08 A2988 RMK AO2 TSNO 
METAR KEQY 171053Z AUTO 25006KT 4SM BR OVC004 08/07 A2989 RMK AO2 RAB09E53 SLP135 P0002 T00780072 TSNO 
SPECI KEQY 171041Z AUTO 23007KT 3SM -RA BR BKN006 BKN027 OVC035 07/07 A2988 RMK AO2 RAB09 CIG 003V009 P0002 TSNO 
SPECI KEQY 170920Z AUTO 20006KT 5SM -RA BR SCT005 SCT016 OVC023 07/07 A2988 RMK AO2 P0000 TSNO 
SPECI KEQY 170907Z AUTO 24006KT 6SM BR BKN005 OVC016 07/07 A2989 RMK AO2 RAE07 CIG 004V010 P0000 TSNO 
METAR KEQY 170853Z AUTO 28007KT 2 1/2SM -RA BR OVC005 07/07 A2990 RMK AO2 RAB06 CIG 004V008 SLP137 P0001 60010 T00720067 55002 TSNO